createdAt,value
2019-06-20T00:02:01.672Z,9.93
2019-06-20T00:04:08.067Z,10.60
2019-06-20T00:06:14.419Z,10.93
2019-06-20T00:08:20.729Z,11.10
2019-06-20T00:10:27.127Z,11.07
2019-06-20T00:12:33.500Z,11.10
2019-06-20T00:14:39.801Z,9.37
2019-06-20T00:16:46.128Z,10.27
2019-06-20T00:18:52.465Z,11.50
2019-06-20T00:21:00.203Z,12.17
2019-06-20T00:23:06.630Z,10.53
2019-06-20T00:25:13.099Z,11.60
2019-06-20T00:27:19.366Z,10.87
2019-06-20T00:29:25.722Z,11.50
2019-06-20T00:31:32.038Z,11.20
2019-06-20T00:33:38.717Z,12.43
2019-06-20T00:35:45.139Z,11.80
2019-06-20T00:37:51.506Z,11.77
2019-06-20T00:39:57.961Z,11.13
2019-06-20T00:42:04.447Z,11.47
2019-06-20T00:44:10.849Z,11.10
2019-06-20T00:46:17.478Z,10.87
2019-06-20T00:48:23.826Z,11.03
2019-06-20T00:50:30.378Z,10.33
2019-06-20T00:52:36.946Z,12.03
2019-06-20T00:54:43.290Z,10.67
2019-06-20T00:56:49.622Z,9.97
2019-06-20T00:59:02.069Z,10.33
2019-06-20T01:01:08.679Z,11.30
2019-06-20T01:03:15.252Z,10.93
2019-06-20T01:05:21.927Z,10.13
2019-06-20T01:07:28.332Z,10.70
2019-06-20T01:09:35.063Z,11.37
2019-06-20T01:11:41.464Z,9.13
2019-06-20T01:13:48.710Z,10.10
2019-06-20T01:15:55.001Z,11.50
2019-06-20T01:18:01.457Z,9.80
2019-06-20T01:20:08.138Z,11.17
2019-06-20T01:22:14.406Z,11.60
2019-06-20T01:24:20.859Z,10.10
2019-06-20T01:26:27.189Z,11.20
2019-06-20T01:28:33.601Z,11.47
2019-06-20T01:30:40.054Z,11.20
2019-06-20T01:32:46.441Z,12.07
2019-06-20T01:34:52.813Z,11.63
2019-06-20T01:36:59.059Z,12.67
2019-06-20T01:39:08.877Z,10.88
2019-06-20T01:41:15.254Z,10.77
2019-06-20T01:43:24.837Z,10.60
2019-06-20T01:45:31.236Z,10.63
2019-06-20T01:47:37.843Z,11.17
2019-06-20T01:49:44.113Z,11.17
2019-06-20T01:51:51.123Z,11.22
2019-06-20T01:53:57.441Z,13.33
2019-06-20T01:56:03.784Z,11.00
2019-06-20T01:58:10.309Z,11.33
2019-06-20T02:00:31.014Z,11.40
2019-06-20T02:02:38.371Z,10.00
2019-06-20T02:04:44.754Z,10.10
2019-06-20T02:06:51.057Z,11.07
2019-06-20T02:08:57.423Z,10.80
2019-06-20T02:11:04.273Z,12.07
2019-06-20T02:13:10.597Z,10.00
2019-06-20T02:15:20.488Z,10.32
2019-06-20T02:17:27.548Z,9.38
2019-06-20T02:19:34.351Z,10.85
2019-06-20T02:21:40.665Z,12.10
2019-06-20T02:23:47.054Z,11.30
2019-06-20T02:25:54.832Z,12.03
2019-06-20T02:28:01.590Z,10.60
2019-06-20T02:30:08.078Z,10.27
2019-06-20T02:32:14.379Z,13.07
2019-06-20T02:34:20.688Z,11.50
2019-06-20T02:36:30.048Z,10.67
2019-06-20T02:38:36.626Z,10.08
2019-06-20T02:40:43.010Z,9.90
2019-06-20T02:42:49.437Z,10.53
2019-06-20T02:44:55.903Z,11.07
2019-06-20T02:47:03.419Z,10.63
2019-06-20T02:49:10.065Z,10.78
2019-06-20T02:51:16.495Z,13.00
2019-06-20T02:53:22.844Z,10.23
2019-06-20T02:55:29.588Z,11.33
2019-06-20T02:57:35.990Z,9.80
2019-06-20T03:02:32.061Z,10.90
2019-06-20T03:04:38.403Z,11.93
2019-06-20T03:06:45.123Z,11.33
2019-06-20T03:08:52.707Z,10.33
2019-06-20T03:10:59.161Z,11.67
2019-06-20T03:13:05.741Z,11.85
2019-06-20T03:15:12.527Z,11.43
2019-06-20T03:17:21.980Z,12.00
2019-06-20T03:19:28.341Z,12.50
2019-06-20T03:21:35.228Z,11.08
2019-06-20T03:23:41.965Z,11.73
2019-06-20T03:25:48.751Z,12.35
2019-06-20T03:27:55.256Z,12.13
2019-06-20T03:30:02.857Z,11.63
2019-06-20T03:32:09.417Z,12.63
2019-06-20T03:34:18.194Z,13.77
2019-06-20T03:36:24.741Z,12.80
2019-06-20T03:38:33.267Z,12.23
2019-06-20T03:40:39.924Z,12.18
2019-06-20T03:42:46.459Z,11.20
2019-06-20T03:45:02.241Z,13.10
2019-06-20T03:47:02.409Z,11.38
2019-06-20T03:49:08.822Z,12.60
2019-06-20T03:51:15.343Z,13.00
2019-06-20T03:53:23.229Z,11.57
2019-06-20T03:55:30.070Z,11.53
2019-06-20T03:57:36.438Z,12.53
2019-06-20T03:59:42.828Z,11.07
2019-06-20T04:01:49.364Z,11.50
2019-06-20T04:03:56.475Z,11.22
2019-06-20T04:06:02.881Z,11.57
2019-06-20T04:08:09.203Z,9.57
2019-06-20T04:10:15.569Z,11.30
2019-06-20T04:12:22.409Z,12.20
2019-06-20T04:14:29.086Z,13.25
2019-06-20T04:16:35.752Z,10.93
2019-06-20T04:18:42.136Z,12.13
2019-06-20T04:20:51.586Z,10.50
2019-06-20T04:22:59.445Z,10.70
2019-06-20T04:25:05.816Z,11.30
2019-06-20T04:27:12.105Z,12.07
2019-06-20T04:29:18.552Z,11.57
2019-06-20T04:31:24.918Z,11.00
2019-06-20T04:33:31.269Z,11.17
2019-06-20T04:35:37.618Z,12.43
2019-06-20T04:37:44.031Z,9.83
2019-06-20T04:39:50.410Z,11.27
2019-06-20T04:41:56.822Z,12.43
2019-06-20T04:44:03.203Z,9.57
2019-06-20T04:46:27.249Z,9.10
2019-06-20T04:48:33.574Z,9.87
2019-06-20T04:50:43.075Z,9.10
2019-06-20T04:52:49.478Z,10.47
2019-06-20T04:54:55.919Z,9.43
2019-06-20T04:57:02.301Z,8.33
2019-06-20T04:59:08.892Z,9.23
2019-06-20T05:01:15.471Z,9.30
2019-06-20T05:03:22.015Z,10.10
2019-06-20T05:05:28.461Z,9.87
2019-06-20T05:07:34.894Z,9.57
2019-06-20T05:09:41.175Z,9.40
2019-06-20T05:11:47.611Z,10.87
2019-06-20T05:13:54.025Z,8.63
2019-06-20T05:16:03.532Z,8.70
2019-06-20T05:18:10.040Z,8.57
2019-06-20T05:20:16.497Z,9.00
2019-06-20T05:22:25.451Z,8.60
2019-06-20T05:24:31.842Z,9.47
2019-06-20T05:26:38.574Z,8.90
2019-06-20T05:28:44.896Z,9.00
2019-06-20T05:30:51.842Z,8.57
2019-06-20T05:33:01.632Z,8.93
2019-06-20T05:35:08.873Z,9.00
2019-06-20T05:37:15.153Z,8.90
2019-06-20T05:39:21.507Z,8.93
2019-06-20T05:41:27.914Z,8.23
2019-06-20T05:43:35.640Z,8.77
2019-06-20T05:45:45.088Z,8.97
2019-06-20T05:47:51.509Z,7.70
2019-06-20T05:50:01.159Z,7.47
2019-06-20T05:52:07.589Z,6.50
2019-06-20T05:54:15.935Z,7.80
2019-06-20T05:56:22.474Z,7.87
2019-06-20T05:58:30.294Z,7.07
2019-06-20T06:00:36.591Z,7.00
2019-06-20T06:02:41.100Z,6.80
2019-06-20T06:04:45.672Z,7.17
2019-06-20T06:06:50.215Z,6.53
2019-06-20T06:08:54.730Z,6.13
2019-06-20T06:10:59.262Z,6.80
2019-06-20T06:13:03.755Z,6.23
2019-06-20T06:15:08.794Z,5.13
2019-06-20T06:17:13.363Z,6.57
2019-06-20T06:19:17.870Z,5.97
2019-06-20T06:21:22.359Z,6.20
2019-06-20T06:23:27.124Z,6.10
2019-06-20T06:25:31.658Z,6.60
2019-06-20T06:27:36.230Z,5.80
2019-06-20T06:29:40.783Z,5.30
2019-06-20T06:31:45.442Z,5.43
2019-06-20T06:33:50.124Z,6.10
2019-06-20T06:35:54.952Z,6.10
2019-06-20T06:38:01.206Z,5.53
2019-06-20T06:40:08.935Z,5.90
2019-06-20T06:42:13.495Z,5.70
2019-06-20T06:44:18.107Z,5.80
2019-06-20T06:46:22.616Z,5.60
2019-06-20T06:48:27.154Z,6.10
2019-06-20T06:50:31.879Z,5.40
2019-06-20T06:52:36.663Z,5.27
2019-06-20T06:54:41.151Z,6.07
2019-06-20T06:56:45.738Z,4.93
2019-06-20T06:58:50.619Z,5.33
2019-06-20T07:00:55.920Z,4.50
2019-06-20T07:03:00.529Z,5.37
2019-06-20T07:05:05.242Z,4.87
2019-06-20T07:07:09.734Z,5.43
2019-06-20T07:09:15.166Z,5.00
2019-06-20T07:11:19.691Z,5.77
2019-06-20T07:13:24.175Z,5.00
2019-06-20T07:15:29.075Z,5.17
2019-06-20T07:17:35.740Z,4.93
2019-06-20T07:19:40.376Z,5.90
2019-06-20T07:21:44.957Z,7.67
2019-06-20T07:23:49.571Z,5.03
2019-06-20T07:25:54.464Z,4.50
2019-06-20T07:27:59.114Z,4.97
2019-06-20T07:30:06.176Z,5.17
2019-06-20T07:32:10.737Z,4.67
2019-06-20T07:34:15.227Z,5.30
2019-06-20T07:36:19.826Z,4.77
2019-06-20T07:38:24.370Z,4.73
2019-06-20T07:40:28.880Z,4.10
2019-06-20T07:42:33.505Z,4.30
2019-06-20T07:44:38.063Z,5.10
2019-06-20T07:46:42.555Z,3.83
2019-06-20T07:48:47.070Z,3.67
2019-06-20T07:50:51.570Z,4.30
2019-06-20T07:53:01.810Z,3.80
2019-06-20T07:55:02.292Z,4.10
2019-06-20T07:57:06.797Z,3.80
2019-06-20T07:59:11.359Z,4.03
2019-06-20T08:01:15.948Z,4.13
2019-06-20T08:03:20.477Z,3.80
2019-06-20T08:05:24.988Z,4.57
2019-06-20T08:07:29.569Z,3.60
2019-06-20T08:09:44.747Z,4.00
2019-06-20T08:11:41.346Z,3.10
2019-06-20T08:13:45.888Z,4.07
2019-06-20T08:15:50.958Z,3.93
2019-06-20T08:17:55.491Z,3.60
2019-06-20T08:20:00.053Z,3.10
2019-06-20T08:22:06.196Z,3.73
2019-06-20T08:24:10.908Z,3.00
2019-06-20T08:26:15.423Z,2.80
2019-06-20T08:28:19.927Z,3.67
2019-06-20T08:30:25.356Z,3.27
2019-06-20T08:32:29.954Z,2.60
2019-06-20T08:34:34.532Z,3.30
2019-06-20T08:36:39.059Z,3.40
2019-06-20T08:38:43.561Z,3.23
2019-06-20T08:40:48.108Z,3.27
2019-06-20T08:42:52.769Z,2.67
2019-06-20T08:44:57.913Z,2.63
2019-06-20T08:47:03.776Z,2.33
2019-06-20T08:49:08.508Z,2.60
2019-06-20T08:51:14.800Z,2.17
2019-06-20T08:53:19.461Z,2.77
2019-06-20T08:55:24.104Z,3.00
2019-06-20T08:57:28.643Z,2.37
2019-06-20T08:59:33.162Z,2.50
2019-06-20T09:01:37.661Z,2.17
2019-06-20T09:03:42.263Z,2.43
2019-06-20T09:05:46.748Z,2.50
2019-06-20T09:07:51.233Z,2.43
2019-06-20T09:09:55.952Z,2.43
2019-06-20T09:12:00.564Z,2.57
2019-06-20T09:14:05.448Z,2.87
2019-06-20T09:16:23.854Z,2.17
2019-06-20T09:18:16.469Z,2.70
2019-06-20T09:20:21.099Z,3.67
2019-06-20T09:22:25.691Z,2.33
2019-06-20T09:24:30.267Z,2.90
2019-06-20T09:26:34.864Z,3.20
2019-06-20T09:28:39.458Z,3.20
2019-06-20T09:30:44.046Z,2.23
2019-06-20T09:32:48.548Z,2.67
2019-06-20T09:34:54.447Z,2.43
2019-06-20T09:36:59.435Z,2.47
2019-06-20T09:39:09.032Z,2.27
2019-06-20T09:41:13.570Z,2.10
2019-06-20T09:43:27.281Z,2.10
2019-06-20T09:45:24.354Z,2.13
2019-06-20T09:47:28.878Z,2.17
2019-06-20T09:49:33.416Z,2.23
2019-06-20T09:51:37.951Z,2.10
2019-06-20T09:53:42.480Z,2.47
2019-06-20T09:55:48.217Z,2.20
2019-06-20T09:57:53.732Z,2.10
2019-06-20T10:00:07.615Z,2.40
2019-06-20T10:02:04.637Z,2.60
2019-06-20T10:04:09.343Z,2.10
2019-06-20T10:06:14.746Z,2.90
2019-06-20T10:08:19.458Z,2.43
2019-06-20T10:10:28.161Z,2.50
2019-06-20T10:12:32.667Z,2.23
2019-06-20T10:14:37.291Z,2.63
2019-06-20T10:16:45.803Z,2.90
2019-06-20T10:18:48.460Z,2.20
2019-06-20T10:20:53.130Z,1.97
2019-06-20T10:22:57.693Z,2.00
2019-06-20T10:25:02.292Z,2.70
2019-06-20T10:27:06.863Z,2.40
2019-06-20T10:29:11.430Z,2.30
2019-06-20T10:31:16.030Z,2.53
2019-06-20T10:33:20.506Z,2.30
2019-06-20T10:35:24.990Z,2.63
2019-06-20T10:37:29.511Z,1.87
2019-06-20T10:39:34.034Z,3.00
2019-06-20T10:41:38.622Z,2.40
2019-06-20T10:43:44.179Z,2.53
2019-06-20T10:45:49.443Z,2.70
2019-06-20T10:47:54.019Z,2.47
2019-06-20T10:49:58.550Z,2.53
2019-06-20T10:52:03.050Z,2.63
2019-06-20T10:54:07.627Z,2.20
2019-06-20T10:56:12.290Z,2.10
2019-06-20T10:58:16.830Z,2.57
2019-06-20T11:00:30.850Z,2.27
2019-06-20T11:02:27.762Z,2.23
2019-06-20T11:04:32.278Z,2.57
2019-06-20T11:06:36.768Z,1.70
2019-06-20T11:08:41.809Z,2.13
2019-06-20T11:10:47.531Z,2.07
2019-06-20T11:12:55.612Z,1.97
2019-06-20T11:14:58.214Z,2.33
2019-06-20T11:17:02.722Z,2.40
2019-06-20T11:19:07.259Z,2.10
2019-06-20T11:21:11.759Z,2.40
2019-06-20T11:23:16.222Z,2.20
2019-06-20T11:25:20.758Z,1.93
2019-06-20T11:27:25.318Z,2.50
2019-06-20T11:29:29.903Z,2.10
2019-06-20T11:31:34.383Z,2.30
2019-06-20T11:33:40.320Z,2.43
2019-06-20T11:35:44.976Z,2.43
2019-06-20T11:37:49.483Z,2.30
2019-06-20T11:39:53.995Z,2.33
2019-06-20T11:41:58.514Z,2.60
2019-06-20T11:44:03.097Z,2.60
2019-06-20T11:46:07.715Z,2.23
2019-06-20T11:48:12.217Z,2.43
2019-06-20T11:50:17.138Z,2.30
2019-06-20T11:52:21.716Z,2.50
2019-06-20T11:54:26.222Z,2.70
2019-06-20T11:56:30.821Z,2.67
2019-06-20T11:58:35.360Z,2.37
2019-06-20T12:00:39.834Z,2.80
2019-06-20T12:02:45.923Z,2.77
2019-06-20T12:04:50.765Z,2.60
2019-06-20T12:06:55.372Z,2.30
2019-06-20T12:08:59.909Z,2.33
2019-06-20T12:11:04.408Z,2.97
2019-06-20T12:13:08.999Z,3.10
2019-06-20T12:15:13.642Z,2.67
2019-06-20T12:17:18.210Z,2.70
2019-06-20T12:19:22.749Z,2.57
2019-06-20T12:21:27.251Z,2.83
2019-06-20T12:23:31.766Z,4.43
2019-06-20T12:25:36.246Z,3.00
2019-06-20T12:27:40.888Z,3.00
2019-06-20T12:29:46.496Z,2.77
2019-06-20T12:31:51.126Z,2.60
2019-06-20T12:33:55.655Z,2.77
2019-06-20T12:36:00.186Z,2.83
2019-06-20T12:38:04.762Z,2.87
2019-06-20T12:40:09.694Z,2.77
2019-06-20T12:42:14.292Z,3.60
2019-06-20T12:44:18.826Z,3.40
2019-06-20T12:46:23.405Z,3.50
2019-06-20T12:48:27.873Z,3.37
2019-06-20T12:50:32.362Z,2.90
2019-06-20T12:52:37.617Z,3.57
2019-06-20T12:54:43.350Z,3.77
2019-06-20T12:56:48.294Z,2.97
2019-06-20T12:58:52.904Z,3.87
2019-06-20T13:00:57.513Z,3.43
2019-06-20T13:03:02.010Z,3.67
2019-06-20T13:05:06.709Z,3.23
2019-06-20T13:07:11.288Z,3.60
2019-06-20T13:09:15.785Z,3.00
2019-06-20T13:11:20.291Z,3.10
2019-06-20T13:13:24.781Z,3.27
2019-06-20T13:15:29.327Z,3.40
2019-06-20T13:17:34.038Z,5.37
2019-06-20T13:19:39.129Z,3.80
2019-06-20T13:21:44.802Z,3.43
2019-06-20T13:23:49.621Z,3.63
2019-06-20T13:25:54.170Z,3.53
2019-06-20T13:27:58.665Z,3.53
2019-06-20T13:30:03.227Z,4.27
2019-06-20T13:32:07.812Z,4.33
2019-06-20T13:34:12.339Z,4.30
2019-06-20T13:36:16.857Z,3.50
2019-06-20T13:38:21.439Z,3.60
2019-06-20T13:40:26.011Z,3.40
2019-06-20T13:42:30.529Z,4.20
2019-06-20T13:44:35.119Z,4.03
2019-06-20T13:46:40.017Z,4.10
2019-06-20T13:48:45.974Z,3.60
2019-06-20T13:50:50.517Z,4.33
2019-06-20T13:52:55.079Z,3.83
2019-06-20T13:54:59.627Z,3.60
2019-06-20T13:57:04.198Z,3.73
2019-06-20T13:59:10.209Z,3.43
2019-06-20T14:01:14.871Z,3.60
2019-06-20T14:03:19.447Z,4.17
2019-06-20T14:05:23.950Z,3.40
2019-06-20T14:07:28.435Z,3.50
2019-06-20T14:09:33.007Z,3.40
2019-06-20T14:11:37.830Z,3.60
2019-06-20T14:13:43.093Z,4.77
2019-06-20T14:15:48.623Z,5.70
2019-06-20T14:17:53.874Z,5.23
2019-06-20T14:19:58.466Z,5.37
2019-06-20T14:22:02.968Z,5.60
2019-06-20T14:24:07.551Z,5.50
2019-06-20T14:26:12.110Z,6.40
2019-06-20T14:28:16.697Z,5.83
2019-06-20T14:30:21.521Z,6.17
2019-06-20T14:32:26.043Z,6.27
2019-06-20T14:34:30.602Z,5.53
2019-06-20T14:36:35.107Z,6.20
2019-06-20T14:38:39.732Z,6.40
2019-06-20T14:40:45.308Z,5.40
2019-06-20T14:42:50.361Z,5.83
2019-06-20T14:44:54.971Z,5.07
2019-06-20T14:46:59.515Z,6.20
2019-06-20T14:49:04.026Z,6.53
2019-06-20T14:51:08.498Z,5.90
2019-06-20T14:53:13.022Z,6.30
2019-06-20T14:55:17.800Z,5.23
2019-06-20T14:57:22.661Z,5.63
2019-06-20T14:59:27.175Z,6.10
2019-06-20T15:01:31.656Z,5.20
2019-06-20T15:03:36.139Z,5.43
2019-06-20T15:05:40.696Z,5.47
2019-06-20T15:07:47.178Z,6.00
2019-06-20T15:09:53.143Z,5.67
2019-06-20T15:11:57.815Z,6.10
2019-06-20T15:14:02.311Z,5.33
2019-06-20T15:16:06.880Z,5.90
2019-06-20T15:18:11.434Z,5.97
2019-06-20T15:20:16.049Z,5.00
2019-06-20T15:22:21.324Z,4.50
2019-06-20T15:24:25.827Z,5.53
2019-06-20T15:26:30.350Z,5.93
2019-06-20T15:28:34.894Z,5.80
2019-06-20T15:30:39.465Z,6.07
2019-06-20T15:32:55.562Z,5.20
2019-06-20T15:34:51.592Z,5.63
2019-06-20T15:36:57.692Z,5.67
2019-06-20T15:39:02.426Z,5.90
2019-06-20T15:41:06.944Z,7.03
2019-06-20T15:43:11.524Z,6.80
2019-06-20T15:45:16.302Z,7.93
2019-06-20T15:47:20.827Z,8.30
2019-06-20T15:49:25.389Z,8.37
2019-06-20T15:51:29.954Z,8.30
2019-06-20T15:53:34.519Z,7.77
2019-06-20T15:55:38.987Z,7.30
2019-06-20T15:57:43.490Z,7.90
2019-06-20T15:59:47.974Z,8.70
2019-06-20T16:01:52.545Z,7.80
2019-06-20T16:03:57.118Z,8.40
2019-06-20T16:06:01.670Z,8.23
2019-06-20T16:08:06.178Z,8.50
2019-06-20T16:10:10.658Z,9.53
2019-06-20T16:12:15.128Z,8.10
2019-06-20T16:14:19.644Z,7.77
2019-06-20T16:16:24.187Z,8.20
2019-06-20T16:18:28.672Z,8.97
2019-06-20T16:20:33.260Z,9.30
2019-06-20T16:22:37.824Z,9.87
2019-06-20T16:24:42.322Z,10.10
2019-06-20T16:26:46.822Z,9.33
2019-06-20T16:28:51.295Z,8.83
2019-06-20T16:31:08.395Z,9.07
2019-06-20T16:33:01.968Z,8.10
2019-06-20T16:35:07.215Z,9.43
2019-06-20T16:37:11.710Z,9.43
2019-06-20T16:39:16.279Z,8.97
2019-06-20T16:41:20.903Z,8.90
2019-06-20T16:43:25.563Z,8.10
2019-06-20T16:45:30.082Z,9.30
2019-06-20T16:47:34.580Z,8.57
2019-06-20T16:49:39.130Z,8.30
2019-06-20T16:51:43.616Z,9.13
2019-06-20T16:53:48.171Z,7.83
2019-06-20T16:55:52.671Z,8.90
2019-06-20T16:57:57.159Z,9.33
2019-06-20T17:00:01.819Z,8.10
2019-06-20T17:02:06.441Z,8.33
2019-06-20T17:04:10.993Z,10.10
2019-06-20T17:06:15.494Z,7.30
2019-06-20T17:08:19.987Z,7.70
2019-06-20T17:10:24.694Z,8.10
2019-06-20T17:12:29.197Z,8.27
2019-06-20T17:14:33.682Z,7.97
2019-06-20T17:16:38.228Z,8.63
2019-06-20T17:18:45.154Z,8.57
2019-06-20T17:20:49.639Z,8.27
2019-06-20T17:22:54.145Z,8.03
2019-06-20T17:24:58.619Z,8.43
2019-06-20T17:27:03.202Z,7.33
2019-06-20T17:29:11.036Z,7.43
2019-06-20T17:31:15.890Z,7.30
2019-06-20T17:33:20.405Z,7.97
2019-06-20T17:35:24.907Z,7.63
2019-06-20T17:37:29.507Z,7.30
2019-06-20T17:39:34.026Z,7.07
2019-06-20T17:41:46.284Z,7.80
2019-06-20T17:43:44.783Z,7.50
2019-06-20T17:45:49.270Z,8.20
2019-06-20T17:47:53.811Z,7.63
2019-06-20T17:49:58.315Z,7.50
2019-06-20T17:52:02.794Z,8.30
2019-06-20T17:54:07.299Z,7.57
2019-06-20T17:56:11.784Z,8.30
2019-06-20T17:58:16.279Z,7.37
2019-06-20T18:00:20.890Z,7.90
2019-06-20T18:02:25.380Z,7.37
2019-06-20T18:04:29.886Z,7.77
2019-06-20T18:06:34.499Z,7.97
2019-06-20T18:08:39.054Z,7.30
2019-06-20T18:10:43.558Z,7.70
2019-06-20T18:12:48.046Z,7.23
2019-06-20T18:14:52.551Z,9.13
2019-06-20T18:17:00.982Z,8.63
2019-06-20T18:19:05.672Z,8.27
2019-06-20T18:21:10.223Z,9.10
2019-06-20T18:23:14.795Z,8.53
2019-06-20T18:25:19.286Z,8.60
2019-06-20T18:27:23.774Z,8.70
2019-06-20T18:29:28.251Z,7.97
2019-06-20T18:31:32.742Z,8.27
2019-06-20T18:33:37.246Z,8.50
2019-06-20T18:35:41.837Z,8.40
2019-06-20T18:37:46.446Z,7.83
2019-06-20T18:39:51.008Z,9.00
2019-06-20T18:41:55.559Z,7.97
2019-06-20T18:44:00.095Z,8.03
2019-06-20T18:46:04.605Z,8.20
2019-06-20T18:48:09.150Z,8.37
2019-06-20T18:50:15.218Z,8.10
2019-06-20T18:52:19.783Z,8.20
2019-06-20T18:54:24.357Z,9.20
2019-06-20T18:56:28.895Z,7.83
2019-06-20T18:58:33.438Z,9.10
2019-06-20T19:00:37.935Z,9.20
2019-06-20T19:02:42.414Z,8.37
2019-06-20T19:04:50.761Z,8.93
2019-06-20T19:06:53.183Z,8.83
2019-06-20T19:08:57.715Z,9.23
2019-06-20T19:11:02.244Z,8.50
2019-06-20T19:13:06.747Z,9.13
2019-06-20T19:15:11.790Z,9.67
2019-06-20T19:17:16.284Z,9.43
2019-06-20T19:19:21.264Z,8.50
2019-06-20T19:21:25.816Z,8.50
2019-06-20T19:23:30.346Z,8.80
2019-06-20T19:25:34.896Z,9.63
2019-06-20T19:27:46.229Z,8.73
2019-06-20T19:29:45.659Z,8.50
2019-06-20T19:31:50.244Z,8.30
2019-06-20T19:33:55.499Z,8.60
2019-06-20T19:36:00.063Z,9.63
2019-06-20T19:38:04.594Z,8.70
2019-06-20T19:40:10.095Z,8.43
2019-06-20T19:42:15.110Z,8.67
2019-06-20T19:44:19.654Z,8.90
2019-06-20T19:46:24.133Z,8.40
2019-06-20T19:48:28.710Z,8.20
2019-06-20T19:50:33.199Z,8.10
2019-06-20T19:52:37.677Z,8.90
2019-06-20T19:54:42.177Z,9.40
2019-06-20T19:56:46.742Z,8.97
2019-06-20T19:58:51.302Z,7.73
2019-06-20T20:00:55.946Z,9.27
2019-06-20T20:03:00.578Z,8.07
2019-06-20T20:05:18.526Z,9.00
2019-06-20T20:07:11.933Z,8.50
2019-06-20T20:09:16.683Z,8.63
2019-06-20T20:11:21.201Z,8.60
2019-06-20T20:13:25.695Z,8.23
2019-06-20T20:15:30.578Z,8.93
2019-06-20T20:17:35.218Z,7.53
2019-06-20T20:19:39.766Z,8.70
2019-06-20T20:21:44.323Z,8.50
2019-06-20T20:23:48.859Z,8.67
2019-06-20T20:25:53.407Z,8.50
2019-06-20T20:27:57.947Z,8.67
2019-06-20T20:30:03.855Z,7.43
2019-06-20T20:32:08.827Z,7.97
2019-06-20T20:34:13.294Z,7.30
2019-06-20T20:36:25.055Z,9.73
2019-06-20T20:38:23.974Z,8.70
2019-06-20T20:40:28.624Z,8.97
2019-06-20T20:42:33.215Z,8.20
2019-06-20T20:44:37.725Z,8.77
2019-06-20T20:46:43.771Z,8.20
2019-06-20T20:48:48.287Z,7.60
2019-06-20T20:50:52.779Z,8.90
2019-06-20T20:52:57.287Z,9.70
2019-06-20T20:55:01.916Z,9.23
2019-06-20T20:57:06.462Z,9.27
2019-06-20T20:59:28.631Z,11.50
2019-06-20T21:01:35.450Z,11.20
2019-06-20T21:03:39.395Z,11.33
2019-06-20T21:05:51.470Z,9.13
2019-06-20T21:07:50.160Z,9.67
2019-06-20T21:09:55.726Z,8.93
2019-06-20T21:12:01.732Z,8.70
2019-06-20T21:14:07.791Z,8.53
2019-06-20T21:16:12.334Z,8.73
2019-06-20T21:18:16.872Z,8.50
2019-06-20T21:20:21.437Z,8.70
2019-06-20T21:22:26.000Z,9.27
2019-06-20T21:24:30.562Z,7.83
2019-06-20T21:26:48.259Z,7.00
2019-06-20T21:28:41.262Z,6.00
2019-06-20T21:30:45.794Z,7.40
2019-06-20T21:32:50.370Z,7.23
2019-06-20T21:34:54.967Z,7.37
2019-06-20T21:36:59.488Z,6.97
2019-06-20T21:39:05.534Z,7.67
2019-06-20T21:41:10.122Z,7.47
2019-06-20T21:43:14.677Z,6.60
2019-06-20T21:45:20.141Z,7.73
2019-06-20T21:47:24.732Z,8.07
2019-06-20T21:49:29.302Z,6.50
2019-06-20T21:51:33.846Z,6.43
2019-06-20T21:53:38.837Z,6.27
2019-06-20T21:55:43.453Z,6.03
2019-06-20T21:57:47.983Z,6.07
2019-06-20T21:59:52.712Z,6.53
2019-06-20T22:01:57.304Z,7.10
2019-06-20T22:04:02.274Z,5.97
2019-06-20T22:06:22.968Z,7.80
2019-06-20T22:08:15.297Z,5.30
2019-06-20T22:10:21.091Z,5.80
2019-06-20T22:12:29.343Z,5.77
2019-06-20T22:14:33.843Z,6.23
2019-06-20T22:16:38.347Z,5.33
2019-06-20T22:18:42.824Z,5.27
2019-06-20T22:20:47.342Z,5.53
2019-06-20T22:22:52.502Z,4.97
2019-06-20T22:24:57.298Z,4.07
2019-06-20T22:27:04.238Z,4.20
2019-06-20T22:29:13.071Z,3.73
2019-06-20T22:31:17.927Z,3.53
2019-06-20T22:33:22.567Z,3.80
2019-06-20T22:35:27.234Z,3.37
2019-06-20T22:37:33.562Z,3.80
2019-06-20T22:39:38.709Z,3.50
2019-06-20T22:41:43.738Z,3.87
2019-06-20T22:43:51.281Z,3.60
2019-06-20T22:45:56.014Z,3.10
2019-06-20T22:48:03.336Z,3.53
2019-06-20T22:50:08.736Z,2.80
2019-06-20T22:52:13.655Z,3.53
2019-06-20T22:54:18.494Z,3.27
2019-06-20T22:56:24.245Z,2.90
2019-06-20T23:01:14.893Z,3.13
2019-06-20T23:03:21.203Z,3.70
2019-06-20T23:05:27.524Z,3.40
2019-06-20T23:07:34.510Z,3.30
2019-06-20T23:09:41.235Z,3.73
2019-06-20T23:11:47.705Z,2.63
2019-06-20T23:13:54.323Z,3.97
2019-06-20T23:16:04.160Z,3.53
2019-06-20T23:18:13.520Z,2.70
2019-06-20T23:20:21.745Z,3.03
2019-06-20T23:22:32.251Z,2.53
2019-06-20T23:24:38.559Z,3.10
2019-06-20T23:26:45.023Z,2.63
2019-06-20T23:29:15.216Z,2.57
2019-06-20T23:31:21.775Z,3.30
2019-06-20T23:33:29.395Z,2.97
2019-06-20T23:35:37.084Z,3.80
2019-06-20T23:37:48.525Z,3.00
2019-06-20T23:39:55.036Z,3.10
2019-06-20T23:42:01.375Z,2.90
2019-06-20T23:44:10.434Z,2.97
2019-06-20T23:46:16.958Z,2.60
2019-06-20T23:48:24.565Z,3.33
2019-06-20T23:50:34.351Z,2.83
2019-06-20T23:52:45.670Z,2.80
2019-06-20T23:54:54.142Z,3.37
2019-06-20T23:57:00.634Z,2.60
2019-06-20T23:59:06.923Z,2.90
